sensor_id;sensor_type;location;lat;lon;timestamp;pressure;altitude;pressure_sealevel;temperature
78961;BMP280;68362;45.970;12.646;2024-03-02T00:00:51;100406.88;;;8.47
78961;BMP280;68362;45.970;12.646;2024-03-02T00:02:13;100406.66;;;8.49
78961;BMP280;68362;45.970;12.646;2024-03-02T00:03:15;100412.50;;;8.44
78961;BMP280;68362;45.970;12.646;2024-03-02T00:04:18;100406.66;;;8.49
78961;BMP280;68362;45.970;12.646;2024-03-02T00:05:21;100410.69;;;8.45
78961;BMP280;68362;45.970;12.646;2024-03-02T00:06:23;100407.81;;;8.53
78961;BMP280;68362;45.970;12.646;2024-03-02T00:07:26;100406.84;;;8.54
78961;BMP280;68362;45.970;12.646;2024-03-02T00:08:29;100402.00;;;8.51
78961;BMP280;68362;45.970;12.646;2024-03-02T00:09:31;100405.66;;;8.50
78961;BMP280;68362;45.970;12.646;2024-03-02T00:10:37;100402.44;;;8.48
78961;BMP280;68362;45.970;12.646;2024-03-02T00:11:43;100401.22;;;8.44
78961;BMP280;68362;45.970;12.646;2024-03-02T00:12:47;100399.31;;;8.33
78961;BMP280;68362;45.970;12.646;2024-03-02T00:13:52;100398.06;;;8.42
78961;BMP280;68362;45.970;12.646;2024-03-02T00:14:55;100403.19;;;8.10
78961;BMP280;68362;45.970;12.646;2024-03-02T00:15:57;100397.50;;;8.26
78961;BMP280;68362;45.970;12.646;2024-03-02T00:17:00;100399.84;;;8.41
78961;BMP280;68362;45.970;12.646;2024-03-02T00:18:02;100393.00;;;8.40
78961;BMP280;68362;45.970;12.646;2024-03-02T00:19:06;100399.03;;;8.41
78961;BMP280;68362;45.970;12.646;2024-03-02T00:20:09;100399.03;;;8.41
78961;BMP280;68362;45.970;12.646;2024-03-02T00:21:12;100397.22;;;8.48
78961;BMP280;68362;45.970;12.646;2024-03-02T00:22:17;100392.81;;;8.42
78961;BMP280;68362;45.970;12.646;2024-03-02T00:23:19;100397.22;;;8.48
78961;BMP280;68362;45.970;12.646;2024-03-02T00:24:34;100398.88;;;8.36
78961;BMP280;68362;45.970;12.646;2024-03-02T00:25:42;100401.75;;;8.28
78961;BMP280;68362;45.970;12.646;2024-03-02T00:26:45;100395.72;;;8.27
78961;BMP280;68362;45.970;12.646;2024-03-02T00:27:47;100393.31;;;8.19
78961;BMP280;68362;45.970;12.646;2024-03-02T00:28:54;100384.28;;;8.08
78961;BMP280;68362;45.970;12.646;2024-03-02T00:30:00;100394.56;;;8.03
78961;BMP280;68362;45.970;12.646;2024-03-02T00:31:12;100389.69;;;8.13
78961;BMP280;68362;45.970;12.646;2024-03-02T00:32:16;100393.97;;;8.01
78961;BMP280;68362;45.970;12.646;2024-03-02T00:33:19;100383.31;;;8.09
78961;BMP280;68362;45.970;12.646;2024-03-02T00:34:22;100391.06;;;8.22
78961;BMP280;68362;45.970;12.646;2024-03-02T00:35:24;100388.22;;;8.31
78961;BMP280;68362;45.970;12.646;2024-03-02T00:36:26;100391.66;;;8.31
78961;BMP280;68362;45.970;12.646;2024-03-02T00:37:29;100386.00;;;8.34
78961;BMP280;68362;45.970;12.646;2024-03-02T00:38:33;100382.78;;;8.32
78961;BMP280;68362;45.970;12.646;2024-03-02T00:39:35;100384.47;;;8.13
78961;BMP280;68362;45.970;12.646;2024-03-02T00:40:38;100381.06;;;8.19
78961;BMP280;68362;45.970;12.646;2024-03-02T00:41:41;100382.06;;;8.18
78961;BMP280;68362;45.970;12.646;2024-03-02T00:42:46;100384.00;;;8.30
78961;BMP280;68362;45.970;12.646;2024-03-02T00:44:01;100379.78;;;8.29
78961;BMP280;68362;45.970;12.646;2024-03-02T00:45:07;100377.16;;;8.29
78961;BMP280;68362;45.970;12.646;2024-03-02T00:46:18;100383.97;;;8.36
78961;BMP280;68362;45.970;12.646;2024-03-02T00:47:21;100384.25;;;8.28
78961;BMP280;68362;45.970;12.646;2024-03-02T00:48:23;100388.41;;;8.36
78961;BMP280;68362;45.970;12.646;2024-03-02T00:49:25;100390.84;;;8.31
78961;BMP280;68362;45.970;12.646;2024-03-02T00:50:31;100384.56;;;8.38
78961;BMP280;68362;45.970;12.646;2024-03-02T00:51:34;100391.28;;;8.21
78961;BMP280;68362;45.970;12.646;2024-03-02T00:52:37;100390.63;;;8.39
78961;BMP280;68362;45.970;12.646;2024-03-02T00:53:39;100387.00;;;8.40
78961;BMP280;68362;45.970;12.646;2024-03-02T00:54:42;100394.38;;;8.56
78961;BMP280;68362;45.970;12.646;2024-03-02T00:55:46;100392.75;;;8.55
78961;BMP280;68362;45.970;12.646;2024-03-02T00:56:50;100394.56;;;8.55
78961;BMP280;68362;45.970;12.646;2024-03-02T00:57:53;100390.34;;;8.54
78961;BMP280;68362;45.970;12.646;2024-03-02T00:58:56;100393.16;;;8.52
78961;BMP280;68362;45.970;12.646;2024-03-02T00:59:58;100389.56;;;8.46
78961;BMP280;68362;45.970;12.646;2024-03-02T01:01:00;100396.00;;;8.50
78961;BMP280;68362;45.970;12.646;2024-03-02T01:02:03;100386.75;;;8.48
78961;BMP280;68362;45.970;12.646;2024-03-02T01:03:05;100393.28;;;8.25
78961;BMP280;68362;45.970;12.646;2024-03-02T01:04:07;100394.72;;;8.21
78961;BMP280;68362;45.970;12.646;2024-03-02T01:05:09;100393.63;;;8.36
78961;BMP280;68362;45.970;12.646;2024-03-02T01:06:11;100391.50;;;8.19
78961;BMP280;68362;45.970;12.646;2024-03-02T01:07:14;100395.06;;;8.32
78961;BMP280;68362;45.970;12.646;2024-03-02T01:08:16;100384.75;;;8.43
78961;BMP280;68362;45.970;12.646;2024-03-02T01:09:18;100387.59;;;8.42
78961;BMP280;68362;45.970;12.646;2024-03-02T01:10:21;100393.16;;;8.52
78961;BMP280;68362;45.970;12.646;2024-03-02T01:11:23;100393.22;;;8.39
78961;BMP280;68362;45.970;12.646;2024-03-02T01:12:25;100397.03;;;8.43
78961;BMP280;68362;45.970;12.646;2024-03-02T01:13:28;100394.44;;;8.36
78961;BMP280;68362;45.970;12.646;2024-03-02T01:14:31;100397.63;;;8.45
78961;BMP280;68362;45.970;12.646;2024-03-02T01:15:33;100392.84;;;8.35
78961;BMP280;68362;45.970;12.646;2024-03-02T01:16:35;100392.38;;;8.45
78961;BMP280;68362;45.970;12.646;2024-03-02T01:17:37;100396.00;;;8.50
78961;BMP280;68362;45.970;12.646;2024-03-02T01:18:39;100390.00;;;8.43
78961;BMP280;68362;45.970;12.646;2024-03-02T01:19:42;100391.38;;;8.46
78961;BMP280;68362;45.970;12.646;2024-03-02T01:20:44;100392.38;;;8.45
78961;BMP280;68362;45.970;12.646;2024-03-02T01:21:46;100387.25;;;8.25
78961;BMP280;68362;45.970;12.646;2024-03-02T01:22:48;100393.63;;;8.36
78961;BMP280;68362;45.970;12.646;2024-03-02T01:23:51;100391.78;;;8.49
78961;BMP280;68362;45.970;12.646;2024-03-02T01:24:52;100385.25;;;8.59
78961;BMP280;68362;45.970;12.646;2024-03-02T01:25:55;100394.31;;;8.63
78961;BMP280;68362;45.970;12.646;2024-03-02T01:26:57;100388.84;;;8.33
78961;BMP280;68362;45.970;12.646;2024-03-02T01:27:59;100392.28;;;8.26
78961;BMP280;68362;45.970;12.646;2024-03-02T01:29:01;100393.47;;;8.31
78961;BMP280;68362;45.970;12.646;2024-03-02T01:30:05;100387.22;;;8.32
78961;BMP280;68362;45.970;12.646;2024-03-02T01:31:07;100386.16;;;8.46
78961;BMP280;68362;45.970;12.646;2024-03-02T01:32:10;100390.75;;;8.44
78961;BMP280;68362;45.970;12.646;2024-03-02T01:33:12;100393.81;;;8.41
78961;BMP280;68362;45.970;12.646;2024-03-02T01:34:15;100393.16;;;8.52
78961;BMP280;68362;45.970;12.646;2024-03-02T01:35:17;100401.59;;;8.54
78961;BMP280;68362;45.970;12.646;2024-03-02T01:36:19;100389.72;;;8.51
78961;BMP280;68362;45.970;12.646;2024-03-02T01:37:21;100388.75;;;8.46
78961;BMP280;68362;45.970;12.646;2024-03-02T01:38:23;100394.97;;;8.51
78961;BMP280;68362;45.970;12.646;2024-03-02T01:39:25;100397.44;;;8.40
78961;BMP280;68362;45.970;12.646;2024-03-02T01:40:28;100396.59;;;8.46
78961;BMP280;68362;45.970;12.646;2024-03-02T01:41:30;100394.84;;;8.40
78961;BMP280;68362;45.970;12.646;2024-03-02T01:42:32;100394.03;;;8.39
78961;BMP280;68362;45.970;12.646;2024-03-02T01:43:34;100395.84;;;8.39
78961;BMP280;68362;45.970;12.646;2024-03-02T01:44:41;100392.97;;;8.47
78961;BMP280;68362;45.970;12.646;2024-03-02T01:45:43;100389.94;;;8.50
78961;BMP280;68362;45.970;12.646;2024-03-02T01:46:45;100395.75;;;8.52
78961;BMP280;68362;45.970;12.646;2024-03-02T01:47:47;100394.75;;;8.53
78961;BMP280;68362;45.970;12.646;2024-03-02T01:48:50;100392.34;;;8.51
78961;BMP280;68362;45.970;12.646;2024-03-02T01:49:52;100394.38;;;8.49
78961;BMP280;68362;45.970;12.646;2024-03-02T01:50:54;100394.00;;;8.46
78961;BMP280;68362;45.970;12.646;2024-03-02T01:51:57;100391.75;;;8.56
78961;BMP280;68362;45.970;12.646;2024-03-02T01:53:00;100399.22;;;8.46
78961;BMP280;68362;45.970;12.646;2024-03-02T01:54:02;100396.59;;;8.46
78961;BMP280;68362;45.970;12.646;2024-03-02T01:55:05;100390.56;;;8.45
78961;BMP280;68362;45.970;12.646;2024-03-02T01:56:10;100391.97;;;8.48
78961;BMP280;68362;45.970;12.646;2024-03-02T01:57:13;100390.56;;;8.45
78961;BMP280;68362;45.970;12.646;2024-03-02T01:58:15;100391.38;;;8.46
78961;BMP280;68362;45.970;12.646;2024-03-02T01:59:17;100388.59;;;8.41
78961;BMP280;68362;45.970;12.646;2024-03-02T02:00:20;100385.78;;;8.36
78961;BMP280;68362;45.970;12.646;2024-03-02T02:01:22;100388.84;;;8.33
78961;BMP280;68362;45.970;12.646;2024-03-02T02:02:24;100395.22;;;8.43
78961;BMP280;68362;45.970;12.646;2024-03-02T02:03:26;100392.78;;;8.48
78961;BMP280;68362;45.970;12.646;2024-03-02T02:04:29;100395.19;;;8.50
78961;BMP280;68362;45.970;12.646;2024-03-02T02:05:31;100387.34;;;8.50
78961;BMP280;68362;45.970;12.646;2024-03-02T02:06:33;100385.53;;;8.50
78961;BMP280;68362;45.970;12.646;2024-03-02T02:07:35;100389.69;;;8.58
78961;BMP280;68362;45.970;12.646;2024-03-02T02:08:37;100380.88;;;8.52
78961;BMP280;68362;45.970;12.646;2024-03-02T02:09:43;100390.72;;;8.57
78961;BMP280;68362;45.970;12.646;2024-03-02T02:10:46;100389.38;;;8.48
78961;BMP280;68362;45.970;12.646;2024-03-02T02:11:48;100386.75;;;8.48
78961;BMP280;68362;45.970;12.646;2024-03-02T02:12:50;100388.72;;;8.52
78961;BMP280;68362;45.970;12.646;2024-03-02T02:13:53;100388.22;;;8.69
78961;BMP280;68362;45.970;12.646;2024-03-02T02:14:57;100391.03;;;8.74
78961;BMP280;68362;45.970;12.646;2024-03-02T02:16:09;100397.34;;;8.53
78961;BMP280;68362;45.970;12.646;2024-03-02T02:17:11;100411.75;;;8.31
78961;BMP280;68362;45.970;12.646;2024-03-02T02:18:14;100401.41;;;8.04
78961;BMP280;68362;45.970;12.646;2024-03-02T02:19:16;100403.78;;;8.06
78961;BMP280;68362;45.970;12.646;2024-03-02T02:20:18;100404.25;;;7.96
78961;BMP280;68362;45.970;12.646;2024-03-02T02:21:24;100404.66;;;7.80
78961;BMP280;68362;45.970;12.646;2024-03-02T02:22:27;100410.28;;;7.77
78961;BMP280;68362;45.970;12.646;2024-03-02T02:23:29;100400.47;;;7.79
78961;BMP280;68362;45.970;12.646;2024-03-02T02:24:31;100392.22;;;7.75
78961;BMP280;68362;45.970;12.646;2024-03-02T02:25:33;100389.34;;;8.10
78961;BMP280;68362;45.970;12.646;2024-03-02T02:26:36;100397.50;;;8.26
78961;BMP280;68362;45.970;12.646;2024-03-02T02:27:39;100402.38;;;8.16
78961;BMP280;68362;45.970;12.646;2024-03-02T02:28:42;100410.81;;;8.05
78961;BMP280;68362;45.970;12.646;2024-03-02T02:29:48;100410.25;;;8.03
78961;BMP280;68362;45.970;12.646;2024-03-02T02:30:51;100407.44;;;7.98
78961;BMP280;68362;45.970;12.646;2024-03-02T02:31:53;100406.66;;;7.91
78961;BMP280;68362;45.970;12.646;2024-03-02T02:32:55;100415.09;;;7.93
78961;BMP280;68362;45.970;12.646;2024-03-02T02:33:57;100404.22;;;8.03
78961;BMP280;68362;45.970;12.646;2024-03-02T02:35:00;100401.41;;;7.91
78961;BMP280;68362;45.970;12.646;2024-03-02T02:36:02;100398.63;;;7.92
78961;BMP280;68362;45.970;12.646;2024-03-02T02:37:04;100392.94;;;8.09
78961;BMP280;68362;45.970;12.646;2024-03-02T02:38:07;100400.38;;;8.05
78961;BMP280;68362;45.970;12.646;2024-03-02T02:39:13;100403.44;;;7.95
78961;BMP280;68362;45.970;12.646;2024-03-02T02:40:16;100405.66;;;7.85
78961;BMP280;68362;45.970;12.646;2024-03-02T02:41:18;100402.25;;;7.85
78961;BMP280;68362;45.970;12.646;2024-03-02T02:42:20;100404.69;;;7.86
78961;BMP280;68362;45.970;12.646;2024-03-02T02:43:22;100403.44;;;7.82
78961;BMP280;68362;45.970;12.646;2024-03-02T02:44:24;100395.22;;;7.92
78961;BMP280;68362;45.970;12.646;2024-03-02T02:45:27;100393.03;;;7.89
78961;BMP280;68362;45.970;12.646;2024-03-02T02:46:29;100395.44;;;7.84
78961;BMP280;68362;45.970;12.646;2024-03-02T02:47:31;100395.84;;;7.81
78961;BMP280;68362;45.970;12.646;2024-03-02T02:48:36;100391.19;;;7.83
78961;BMP280;68362;45.970;12.646;2024-03-02T02:49:38;100388.56;;;7.83
78961;BMP280;68362;45.970;12.646;2024-03-02T02:50:41;100383.34;;;7.83
78961;BMP280;68362;45.970;12.646;2024-03-02T02:51:43;100388.34;;;7.91
78961;BMP280;68362;45.970;12.646;2024-03-02T02:52:46;100384.75;;;7.85
78961;BMP280;68362;45.970;12.646;2024-03-02T02:53:48;100386.56;;;7.85
78961;BMP280;68362;45.970;12.646;2024-03-02T02:54:50;100383.16;;;7.84
78961;BMP280;68362;45.970;12.646;2024-03-02T02:55:53;100382.78;;;7.81
78961;BMP280;68362;45.970;12.646;2024-03-02T02:56:55;100385.97;;;7.83
78961;BMP280;68362;45.970;12.646;2024-03-02T02:57:58;100386.19;;;7.81
78961;BMP280;68362;45.970;12.646;2024-03-02T02:59:00;100380.97;;;7.74
78961;BMP280;68362;45.970;12.646;2024-03-02T03:00:05;100385.00;;;7.70
78961;BMP280;68362;45.970;12.646;2024-03-02T03:01:11;100379.19;;;7.68
78961;BMP280;68362;45.970;12.646;2024-03-02T03:02:14;100384.41;;;7.68
78961;BMP280;68362;45.970;12.646;2024-03-02T03:03:16;100389.03;;;7.66
78961;BMP280;68362;45.970;12.646;2024-03-02T03:04:18;100387.84;;;7.62
78961;BMP280;68362;45.970;12.646;2024-03-02T03:05:20;100388.22;;;7.59
78961;BMP280;68362;45.970;12.646;2024-03-02T03:06:23;100388.22;;;7.59
78961;BMP280;68362;45.970;12.646;2024-03-02T03:07:25;100383.41;;;7.69
78961;BMP280;68362;45.970;12.646;2024-03-02T03:08:27;100384.56;;;7.73
78961;BMP280;68362;45.970;12.646;2024-03-02T03:09:30;100387.22;;;7.67
78961;BMP280;68362;45.970;12.646;2024-03-02T03:10:32;100390.84;;;7.66
78961;BMP280;68362;45.970;12.646;2024-03-02T03:11:35;100383.78;;;7.66
78961;BMP280;68362;45.970;12.646;2024-03-02T03:12:37;100395.69;;;7.62
78961;BMP280;68362;45.970;12.646;2024-03-02T03:13:39;100400.66;;;7.84
78961;BMP280;68362;45.970;12.646;2024-03-02T03:14:41;100397.63;;;7.73
78961;BMP280;68362;45.970;12.646;2024-03-02T03:15:43;100391.41;;;7.68
78961;BMP280;68362;45.970;12.646;2024-03-02T03:16:46;100398.84;;;7.71
78961;BMP280;68362;45.970;12.646;2024-03-02T03:17:50;100400.28;;;7.60
78961;BMP280;68362;45.970;12.646;2024-03-02T03:18:52;100390.66;;;7.61
78961;BMP280;68362;45.970;12.646;2024-03-02T03:19:55;100387.84;;;7.62
78961;BMP280;68362;45.970;12.646;2024-03-02T03:20:57;100388.66;;;7.63
78961;BMP280;68362;45.970;12.646;2024-03-02T03:21:59;100385.41;;;7.61
78961;BMP280;68362;45.970;12.646;2024-03-02T03:23:01;100393.44;;;7.59
78961;BMP280;68362;45.970;12.646;2024-03-02T03:24:06;100393.66;;;7.64
78961;BMP280;68362;45.970;12.646;2024-03-02T03:25:08;100394.66;;;7.57
78961;BMP280;68362;45.970;12.646;2024-03-02T03:26:10;100393.88;;;7.63
78961;BMP280;68362;45.970;12.646;2024-03-02T03:27:12;100396.47;;;7.63
78961;BMP280;68362;45.970;12.646;2024-03-02T03:28:15;100398.09;;;7.64
78961;BMP280;68362;45.970;12.646;2024-03-02T03:29:17;100388.81;;;7.68
78961;BMP280;68362;45.970;12.646;2024-03-02T03:30:19;100392.63;;;7.59
78961;BMP280;68362;45.970;12.646;2024-03-02T03:31:21;100400.91;;;7.62
78961;BMP280;68362;45.970;12.646;2024-03-02T03:32:23;100394.66;;;7.63
78961;BMP280;68362;45.970;12.646;2024-03-02T03:33:26;100402.91;;;7.60
78961;BMP280;68362;45.970;12.646;2024-03-02T03:34:29;100398.28;;;7.62
78961;BMP280;68362;45.970;12.646;2024-03-02T03:35:31;100400.69;;;7.64
78961;BMP280;68362;45.970;12.646;2024-03-02T03:36:34;100400.28;;;7.60
78961;BMP280;68362;45.970;12.646;2024-03-02T03:37:36;100400.28;;;7.60
78961;BMP280;68362;45.970;12.646;2024-03-02T03:38:38;100397.69;;;7.60
78961;BMP280;68362;45.970;12.646;2024-03-02T03:39:40;100393.88;;;7.63
78961;BMP280;68362;45.970;12.646;2024-03-02T03:40:43;100397.25;;;7.70
78961;BMP280;68362;45.970;12.646;2024-03-02T03:41:45;100396.44;;;7.76
78961;BMP280;68362;45.970;12.646;2024-03-02T03:42:47;100399.44;;;7.86
78961;BMP280;68362;45.970;12.646;2024-03-02T03:43:50;100405.03;;;7.90
78961;BMP280;68362;45.970;12.646;2024-03-02T03:44:54;100405.69;;;7.79
78961;BMP280;68362;45.970;12.646;2024-03-02T03:45:56;100396.66;;;7.74
78961;BMP280;68362;45.970;12.646;2024-03-02T03:46:58;100398.47;;;7.81
78961;BMP280;68362;45.970;12.646;2024-03-02T03:48:01;100399.84;;;7.83
78961;BMP280;68362;45.970;12.646;2024-03-02T03:49:04;100398.66;;;7.72
78961;BMP280;68362;45.970;12.646;2024-03-02T03:50:07;100398.88;;;7.78
78961;BMP280;68362;45.970;12.646;2024-03-02T03:51:09;100399.06;;;7.69
78961;BMP280;68362;45.970;12.646;2024-03-02T03:52:11;100398.28;;;7.69
78961;BMP280;68362;45.970;12.646;2024-03-02T03:53:14;100402.69;;;7.68
78961;BMP280;68362;45.970;12.646;2024-03-02T03:54:16;100400.47;;;7.79
78961;BMP280;68362;45.970;12.646;2024-03-02T03:55:18;100399.44;;;7.80
78961;BMP280;68362;45.970;12.646;2024-03-02T03:56:20;100399.84;;;7.77
78961;BMP280;68362;45.970;12.646;2024-03-02T03:57:23;100406.31;;;7.81
78961;BMP280;68362;45.970;12.646;2024-03-02T03:58:25;100399.03;;;7.83
78961;BMP280;68362;45.970;12.646;2024-03-02T03:59:27;100405.25;;;7.82
78961;BMP280;68362;45.970;12.646;2024-03-02T04:00:29;100400.03;;;7.88
78961;BMP280;68362;45.970;12.646;2024-03-02T04:01:32;100412.31;;;7.88
78961;BMP280;68362;45.970;12.646;2024-03-02T04:02:36;100406.84;;;7.83
78961;BMP280;68362;45.970;12.646;2024-03-02T04:03:38;100406.31;;;7.81
78961;BMP280;68362;45.970;12.646;2024-03-02T04:04:40;100403.44;;;7.82
78961;BMP280;68362;45.970;12.646;2024-03-02T04:05:43;100402.88;;;7.80
78961;BMP280;68362;45.970;12.646;2024-03-02T04:06:45;100403.69;;;7.81
78961;BMP280;68362;45.970;12.646;2024-03-02T04:07:47;100407.88;;;7.82
78961;BMP280;68362;45.970;12.646;2024-03-02T04:08:49;100399.03;;;7.83
78961;BMP280;68362;45.970;12.646;2024-03-02T04:09:52;100405.06;;;7.83
78961;BMP280;68362;45.970;12.646;2024-03-02T04:10:54;100406.66;;;7.91
78961;BMP280;68362;45.970;12.646;2024-03-02T04:11:56;100400.88;;;7.89
78961;BMP280;68362;45.970;12.646;2024-03-02T04:12:58;100397.03;;;7.78
78961;BMP280;68362;45.970;12.646;2024-03-02T04:14:00;100402.88;;;7.80
78961;BMP280;68362;45.970;12.646;2024-03-02T04:15:05;100409.91;;;7.80
78961;BMP280;68362;45.970;12.646;2024-03-02T04:16:08;100407.06;;;7.88
78961;BMP280;68362;45.970;12.646;2024-03-02T04:17:10;100403.44;;;7.82
78961;BMP280;68362;45.970;12.646;2024-03-02T04:18:13;100400.25;;;7.87
78961;BMP280;68362;45.970;12.646;2024-03-02T04:19:15;100403.03;;;7.85
78961;BMP280;68362;45.970;12.646;2024-03-02T04:20:17;100409.31;;;7.71
78961;BMP280;68362;45.970;12.646;2024-03-02T04:21:19;100410.69;;;7.73
78961;BMP280;68362;45.970;12.646;2024-03-02T04:22:22;100400.47;;;7.79
78961;BMP280;68362;45.970;12.646;2024-03-02T04:23:26;100399.25;;;7.68
78961;BMP280;68362;45.970;12.646;2024-03-02T04:24:29;100402.06;;;7.66
78961;BMP280;68362;45.970;12.646;2024-03-02T04:25:31;100402.66;;;7.82
78961;BMP280;68362;45.970;12.646;2024-03-02T04:26:34;100405.91;;;7.70
78961;BMP280;68362;45.970;12.646;2024-03-02T04:27:36;100405.91;;;7.70
78961;BMP280;68362;45.970;12.646;2024-03-02T04:28:38;100399.28;;;7.61
78961;BMP280;68362;45.970;12.646;2024-03-02T04:29:40;100407.31;;;7.60
78961;BMP280;68362;45.970;12.646;2024-03-02T04:30:43;100408.31;;;7.59
78961;BMP280;68362;45.970;12.646;2024-03-02T04:31:45;100402.28;;;7.71
78961;BMP280;68362;45.970;12.646;2024-03-02T04:32:47;100405.91;;;7.64
78961;BMP280;68362;45.970;12.646;2024-03-02T04:33:49;100409.72;;;7.61
78961;BMP280;68362;45.970;12.646;2024-03-02T04:34:51;100406.72;;;7.64
78961;BMP280;68362;45.970;12.646;2024-03-02T04:35:53;100409.94;;;7.60
78961;BMP280;68362;45.970;12.646;2024-03-02T04:36:56;100413.34;;;7.80
78961;BMP280;68362;45.970;12.646;2024-03-02T04:37:58;100409.91;;;7.66
78961;BMP280;68362;45.970;12.646;2024-03-02T04:39:00;100406.13;;;7.62
78961;BMP280;68362;45.970;12.646;2024-03-02T04:40:02;100413.31;;;7.67
78961;BMP280;68362;45.970;12.646;2024-03-02T04:41:05;100418.38;;;7.68
78961;BMP280;68362;45.970;12.646;2024-03-02T04:42:08;100407.91;;;7.75
78961;BMP280;68362;45.970;12.646;2024-03-02T04:43:10;100416.50;;;7.95
78961;BMP280;68362;45.970;12.646;2024-03-02T04:44:16;100420.31;;;7.93
78961;BMP280;68362;45.970;12.646;2024-03-02T04:45:18;100420.25;;;8.06
78961;BMP280;68362;45.970;12.646;2024-03-02T04:46:21;100420.06;;;8.14
78961;BMP280;68362;45.970;12.646;2024-03-02T04:47:23;100422.44;;;8.22
78961;BMP280;68362;45.970;12.646;2024-03-02T04:48:25;100412.19;;;8.21
78961;BMP280;68362;45.970;12.646;2024-03-02T04:49:27;100417.47;;;8.08
78961;BMP280;68362;45.970;12.646;2024-03-02T04:50:30;100423.91;;;8.18
78961;BMP280;68362;45.970;12.646;2024-03-02T04:51:32;100427.28;;;8.25
78961;BMP280;68362;45.970;12.646;2024-03-02T04:52:34;100427.09;;;8.20
78961;BMP280;68362;45.970;12.646;2024-03-02T04:53:36;100430.72;;;8.06
78961;BMP280;68362;45.970;12.646;2024-03-02T04:54:38;100427.94;;;7.94
78961;BMP280;68362;45.970;12.646;2024-03-02T04:55:59;100425.34;;;8.01
78961;BMP280;68362;45.970;12.646;2024-03-02T04:57:01;100428.09;;;8.06
78961;BMP280;68362;45.970;12.646;2024-03-02T04:58:03;100425.13;;;8.09
78961;BMP280;68362;45.970;12.646;2024-03-02T04:59:06;100428.75;;;8.02
78961;BMP280;68362;45.970;12.646;2024-03-02T05:00:09;100434.78;;;8.02
78961;BMP280;68362;45.970;12.646;2024-03-02T05:01:11;100427.97;;;7.88
78961;BMP280;68362;45.970;12.646;2024-03-02T05:02:16;100422.78;;;7.74
78961;BMP280;68362;45.970;12.646;2024-03-02T05:03:18;100431.94;;;7.97
78961;BMP280;68362;45.970;12.646;2024-03-02T05:04:20;100428.13;;;7.99
78961;BMP280;68362;45.970;12.646;2024-03-02T05:05:23;100430.72;;;8.06
78961;BMP280;68362;45.970;12.646;2024-03-02T05:06:25;100425.75;;;8.05
78961;BMP280;68362;45.970;12.646;2024-03-02T05:07:27;100424.75;;;7.92
78961;BMP280;68362;45.970;12.646;2024-03-02T05:08:29;100427.56;;;7.97
78961;BMP280;68362;45.970;12.646;2024-03-02T05:09:31;100427.16;;;8.00
78961;BMP280;68362;45.970;12.646;2024-03-02T05:10:33;100425.16;;;7.96
78961;BMP280;68362;45.970;12.646;2024-03-02T05:11:36;100431.97;;;8.04
78961;BMP280;68362;45.970;12.646;2024-03-02T05:12:41;100436.97;;;8.05
78961;BMP280;68362;45.970;12.646;2024-03-02T05:13:46;100435.56;;;8.09
78961;BMP280;68362;45.970;12.646;2024-03-02T05:14:48;100433.19;;;8.01
78961;BMP280;68362;45.970;12.646;2024-03-02T05:15:50;100436.00;;;7.93
78961;BMP280;68362;45.970;12.646;2024-03-02T05:16:53;100438.03;;;7.84
78961;BMP280;68362;45.970;12.646;2024-03-02T05:17:55;100437.22;;;7.84
78961;BMP280;68362;45.970;12.646;2024-03-02T05:18:59;100432.00;;;7.70
78961;BMP280;68362;45.970;12.646;2024-03-02T05:20:02;100442.88;;;7.81
78961;BMP280;68362;45.970;12.646;2024-03-02T05:21:05;100443.22;;;7.91
78961;BMP280;68362;45.970;12.646;2024-03-02T05:22:07;100440.81;;;7.89
78961;BMP280;68362;45.970;12.646;2024-03-02T05:23:09;100451.69;;;7.93
78961;BMP280;68362;45.970;12.646;2024-03-02T05:24:12;100445.44;;;7.94
78961;BMP280;68362;45.970;12.646;2024-03-02T05:25:14;100443.22;;;7.91
78961;BMP280;68362;45.970;12.646;2024-03-02T05:26:16;100440.66;;;7.71
78961;BMP280;68362;45.970;12.646;2024-03-02T05:27:18;100451.25;;;7.83
78961;BMP280;68362;45.970;12.646;2024-03-02T05:28:20;100449.66;;;7.82
78961;BMP280;68362;45.970;12.646;2024-03-02T05:29:22;100443.66;;;7.74
78961;BMP280;68362;45.970;12.646;2024-03-02T05:30:24;100443.25;;;7.84
78961;BMP280;68362;45.970;12.646;2024-03-02T05:31:28;100446.47;;;7.80
78961;BMP280;68362;45.970;12.646;2024-03-02T05:32:30;100446.84;;;7.90
78961;BMP280;68362;45.970;12.646;2024-03-02T05:33:32;100442.00;;;8.00
78961;BMP280;68362;45.970;12.646;2024-03-02T05:34:35;100446.03;;;8.09
78961;BMP280;68362;45.970;12.646;2024-03-02T05:35:37;100445.38;;;8.14
78961;BMP280;68362;45.970;12.646;2024-03-02T05:36:39;100444.47;;;7.95
78961;BMP280;68362;45.970;12.646;2024-03-02T05:37:42;100452.84;;;7.97
78961;BMP280;68362;45.970;12.646;2024-03-02T05:38:44;100445.25;;;7.95
78961;BMP280;68362;45.970;12.646;2024-03-02T05:39:46;100458.09;;;7.90
78961;BMP280;68362;45.970;12.646;2024-03-02T05:40:48;100459.72;;;7.98
78961;BMP280;68362;45.970;12.646;2024-03-02T05:41:50;100457.69;;;7.73
78961;BMP280;68362;45.970;12.646;2024-03-02T05:42:53;100460.97;;;7.89
78961;BMP280;68362;45.970;12.646;2024-03-02T05:43:55;100467.34;;;7.99
78961;BMP280;68362;45.970;12.646;2024-03-02T05:44:58;100467.72;;;8.03
78961;BMP280;68362;45.970;12.646;2024-03-02T05:46:00;100468.31;;;8.05
78961;BMP280;68362;45.970;12.646;2024-03-02T05:47:02;100462.69;;;8.08
78961;BMP280;68362;45.970;12.646;2024-03-02T05:48:08;100468.94;;;8.07
78961;BMP280;68362;45.970;12.646;2024-03-02T05:49:11;100464.91;;;8.11
78961;BMP280;68362;45.970;12.646;2024-03-02T05:50:14;100465.50;;;8.20
78961;BMP280;68362;45.970;12.646;2024-03-02T05:51:16;100466.97;;;7.96
78961;BMP280;68362;45.970;12.646;2024-03-02T05:52:18;100467.91;;;8.08
78961;BMP280;68362;45.970;12.646;2024-03-02T05:53:21;100469.72;;;8.14
78961;BMP280;68362;45.970;12.646;2024-03-02T05:54:23;100474.94;;;8.14
78961;BMP280;68362;45.970;12.646;2024-03-02T05:55:25;100469.91;;;8.06
78961;BMP280;68362;45.970;12.646;2024-03-02T05:56:27;100469.72;;;8.14
78961;BMP280;68362;45.970;12.646;2024-03-02T05:57:30;100472.13;;;8.16